sensor_id;sensor_type;location;lat;lon;timestamp;pressure;altitude;pressure_sealevel;temperature;humidity
17873;BME280;36318;42.620;23.338;2023-03-20T00:00:12;93276.47;;;5.41;100.00
17873;BME280;36318;42.620;23.338;2023-03-20T00:02:40;93276.66;;;5.38;100.00
17873;BME280;36318;42.620;23.338;2023-03-20T00:05:14;93275.66;;;5.40;100.00
17873;BME280;36318;42.620;23.338;2023-03-20T00:07:40;93271.50;;;5.38;100.00
17873;BME280;36318;42.620;23.338;2023-03-20T00:10:08;93270.31;;;5.29;100.00
17873;BME280;36318;42.620;23.338;2023-03-20T00:12:35;93263.59;;;5.27;100.00
17873;BME280;36318;42.620;23.338;2023-03-20T00:15:04;93263.09;;;5.20;100.00
17873;BME280;36318;42.620;23.338;2023-03-20T00:17:32;93265.22;;;5.28;100.00
17873;BME280;36318;42.620;23.338;2023-03-20T00:19:59;93267.97;;;5.25;100.00
17873;BME280;36318;42.620;23.338;2023-03-20T00:22:25;93262.03;;;5.24;100.00
17873;BME280;36318;42.620;23.338;2023-03-20T00:24:53;93258.63;;;5.24;100.00
17873;BME280;36318;42.620;23.338;2023-03-20T00:27:20;93256.22;;;5.21;100.00
17873;BME280;36318;42.620;23.338;2023-03-20T00:29:46;93254.91;;;5.14;100.00
17873;BME280;36318;42.620;23.338;2023-03-20T00:32:15;93250.03;;;5.09;100.00
17873;BME280;36318;42.620;23.338;2023-03-20T00:34:41;93252.81;;;5.20;100.00
17873;BME280;36318;42.620;23.338;2023-03-20T00:37:08;93251.16;;;5.19;100.00
17873;BME280;36318;42.620;23.338;2023-03-20T00:39:35;93251.38;;;5.01;100.00
17873;BME280;36318;42.620;23.338;2023-03-20T00:42:02;93245.09;;;4.91;100.00
17873;BME280;36318;42.620;23.338;2023-03-20T00:44:31;93246.66;;;4.93;100.00
17873;BME280;36318;42.620;23.338;2023-03-20T00:46:59;93247.09;;;4.86;100.00
17873;BME280;36318;42.620;23.338;2023-03-20T00:49:29;93238.84;;;4.80;100.00
17873;BME280;36318;42.620;23.338;2023-03-20T00:51:56;93243.56;;;4.72;100.00
17873;BME280;36318;42.620;23.338;2023-03-20T00:54:26;93243.56;;;4.72;100.00
17873;BME280;36318;42.620;23.338;2023-03-20T00:56:53;93245.88;;;4.77;100.00
17873;BME280;36318;42.620;23.338;2023-03-20T00:59:21;93238.66;;;4.68;100.00
17873;BME280;36318;42.620;23.338;2023-03-20T01:01:50;93234.28;;;4.70;100.00
17873;BME280;36318;42.620;23.338;2023-03-20T01:04:17;93229.78;;;4.73;100.00
17873;BME280;36318;42.620;23.338;2023-03-20T01:06:46;93229.94;;;4.70;100.00
17873;BME280;36318;42.620;23.338;2023-03-20T01:09:13;93225.19;;;4.64;100.00
17873;BME280;36318;42.620;23.338;2023-03-20T01:11:40;93225.84;;;4.52;100.00
17873;BME280;36318;42.620;23.338;2023-03-20T01:14:09;93218.81;;;4.40;100.00
17873;BME280;36318;42.620;23.338;2023-03-20T01:16:38;93220.13;;;4.47;100.00
17873;BME280;36318;42.620;23.338;2023-03-20T01:19:05;93207.69;;;4.55;100.00
17873;BME280;36318;42.620;23.338;2023-03-20T01:21:32;93216.06;;;4.59;100.00
17873;BME280;36318;42.620;23.338;2023-03-20T01:23:59;93219.81;;;4.53;100.00
17873;BME280;36318;42.620;23.338;2023-03-20T01:26:28;93215.56;;;4.52;100.00
17873;BME280;36318;42.620;23.338;2023-03-20T01:28:57;93219.13;;;4.50;100.00
17873;BME280;36318;42.620;23.338;2023-03-20T01:31:23;93210.84;;;4.45;100.00
17873;BME280;36318;42.620;23.338;2023-03-20T01:33:50;93215.75;;;4.34;100.00
17873;BME280;36318;42.620;23.338;2023-03-20T01:36:18;93218.50;;;4.31;100.00
17873;BME280;36318;42.620;23.338;2023-03-20T01:38:53;93218.31;;;4.34;100.00
17873;BME280;36318;42.620;23.338;2023-03-20T01:41:21;93224.13;;;4.37;100.00
17873;BME280;36318;42.620;23.338;2023-03-20T01:43:48;93215.16;;;4.44;100.00
17873;BME280;36318;42.620;23.338;2023-03-20T01:46:16;93214.00;;;4.50;100.00
17873;BME280;36318;42.620;23.338;2023-03-20T01:48:59;93222.78;;;4.61;100.00
17873;BME280;36318;42.620;23.338;2023-03-20T01:51:27;93220.78;;;4.66;100.00
17873;BME280;36318;42.620;23.338;2023-03-20T01:53:55;93220.59;;;4.69;100.00
17873;BME280;36318;42.620;23.338;2023-03-20T01:56:24;93225.00;;;4.67;100.00
17873;BME280;36318;42.620;23.338;2023-03-20T01:58:52;93229.75;;;4.59;100.00
17873;BME280;36318;42.620;23.338;2023-03-20T02:01:22;93222.44;;;4.52;100.00
17873;BME280;36318;42.620;23.338;2023-03-20T02:03:50;93231.16;;;4.49;100.00
17873;BME280;36318;42.620;23.338;2023-03-20T02:06:17;93225.59;;;4.41;100.00
17873;BME280;36318;42.620;23.338;2023-03-20T02:08:46;93221.00;;;4.32;100.00
17873;BME280;36318;42.620;23.338;2023-03-20T02:11:13;93219.47;;;4.28;100.00
17873;BME280;36318;42.620;23.338;2023-03-20T02:13:42;93213.88;;;4.21;100.00
17873;BME280;36318;42.620;23.338;2023-03-20T02:16:10;93208.72;;;4.21;100.00
17873;BME280;36318;42.620;23.338;2023-03-20T02:18:37;93209.22;;;4.12;100.00
17873;BME280;36318;42.620;23.338;2023-03-20T02:21:15;93213.22;;;4.02;100.00
17873;BME280;36318;42.620;23.338;2023-03-20T02:23:52;93204.09;;;3.97;100.00
17873;BME280;36318;42.620;23.338;2023-03-20T02:26:26;93217.25;;;3.91;100.00
17873;BME280;36318;42.620;23.338;2023-03-20T02:34:40;93210.69;;;3.70;100.00
17873;BME280;36318;42.620;23.338;2023-03-20T02:40:05;93213.75;;;3.76;100.00
17873;BME280;36318;42.620;23.338;2023-03-20T02:42:38;93211.84;;;3.80;100.00
17873;BME280;36318;42.620;23.338;2023-03-20T02:45:12;93214.25;;;3.83;100.00
17873;BME280;36318;42.620;23.338;2023-03-20T02:47:45;93209.88;;;3.85;100.00
17873;BME280;36318;42.620;23.338;2023-03-20T02:50:14;93211.53;;;3.86;100.00
17873;BME280;36318;42.620;23.338;2023-03-20T02:52:44;93201.25;;;3.86;100.00
17873;BME280;36318;42.620;23.338;2023-03-20T02:55:16;93196.13;;;3.86;100.00
17873;BME280;36318;42.620;23.338;2023-03-20T02:57:50;93191.00;;;3.86;100.00
17873;BME280;36318;42.620;23.338;2023-03-20T03:00:24;93198.38;;;3.92;100.00
17873;BME280;36318;42.620;23.338;2023-03-20T03:02:55;93194.97;;;3.91;100.00
17873;BME280;36318;42.620;23.338;2023-03-20T03:05:24;93195.44;;;3.82;100.00
17873;BME280;36318;42.620;23.338;2023-03-20T03:07:54;93188.06;;;3.76;100.00
17873;BME280;36318;42.620;23.338;2023-03-20T03:10:23;93198.50;;;3.73;100.00
17873;BME280;36318;42.620;23.338;2023-03-20T03:12:53;93200.41;;;3.70;100.00
17873;BME280;36318;42.620;23.338;2023-03-20T03:15:22;93196.13;;;3.70;100.00
17873;BME280;36318;42.620;23.338;2023-03-20T03:17:51;93193.47;;;3.72;100.00
17873;BME280;36318;42.620;23.338;2023-03-20T03:20:19;93192.97;;;3.81;100.00
17873;BME280;36318;42.620;23.338;2023-03-20T03:22:47;93191.78;;;3.71;100.00
17873;BME280;36318;42.620;23.338;2023-03-20T03:25:14;93193.78;;;3.81;100.00
17873;BME280;36318;42.620;23.338;2023-03-20T03:27:42;93194.97;;;3.76;100.00
17873;BME280;36318;42.620;23.338;2023-03-20T03:30:12;93191.00;;;3.70;100.00
17873;BME280;36318;42.620;23.338;2023-03-20T03:32:42;93192.22;;;3.79;100.00
17873;BME280;36318;42.620;23.338;2023-03-20T03:35:12;93194.63;;;3.82;100.00
17873;BME280;36318;42.620;23.338;2023-03-20T03:37:42;93195.78;;;3.76;100.00
17873;BME280;36318;42.620;23.338;2023-03-20T03:40:15;93194.69;;;3.65;100.00
17873;BME280;36318;42.620;23.338;2023-03-20T03:42:48;93192.78;;;3.68;100.00
17873;BME280;36318;42.620;23.338;2023-03-20T03:45:18;93198.16;;;3.63;100.00
17873;BME280;36318;42.620;23.338;2023-03-20T03:47:49;93192.41;;;3.76;100.00
17873;BME280;36318;42.620;23.338;2023-03-20T03:50:19;93199.75;;;3.82;100.00
17873;BME280;36318;42.620;23.338;2023-03-20T03:52:48;93201.16;;;3.72;100.00
17873;BME280;36318;42.620;23.338;2023-03-20T03:55:18;93198.25;;;3.62;100.00
17873;BME280;36318;42.620;23.338;2023-03-20T03:57:48;93199.25;;;3.59;100.00
17873;BME280;36318;42.620;23.338;2023-03-20T04:00:18;93195.91;;;3.57;100.00
17873;BME280;36318;42.620;23.338;2023-03-20T04:02:46;93190.84;;;3.89;100.00
17873;BME280;36318;42.620;23.338;2023-03-20T04:05:13;93191.72;;;3.88;100.00
17873;BME280;36318;42.620;23.338;2023-03-20T04:07:43;93186.03;;;3.83;100.00
17873;BME280;36318;42.620;23.338;2023-03-20T04:10:10;93193.16;;;3.78;100.00
17873;BME280;36318;42.620;23.338;2023-03-20T04:12:37;93183.19;;;3.72;100.00
17873;BME280;36318;42.620;23.338;2023-03-20T04:15:06;93180.94;;;3.66;100.00
17873;BME280;36318;42.620;23.338;2023-03-20T04:17:33;93181.94;;;3.63;100.00
17873;BME280;36318;42.620;23.338;2023-03-20T04:19:59;93180.38;;;3.60;100.00
17873;BME280;36318;42.620;23.338;2023-03-20T04:22:26;93180.22;;;3.63;100.00
17873;BME280;36318;42.620;23.338;2023-03-20T04:24:52;93184.34;;;3.66;100.00
17873;BME280;36318;42.620;23.338;2023-03-20T04:27:19;93177.53;;;3.65;100.00
17873;BME280;36318;42.620;23.338;2023-03-20T04:29:46;93181.09;;;3.62;100.00
17873;BME280;36318;42.620;23.338;2023-03-20T04:32:17;93172.66;;;3.60;100.00
17873;BME280;36318;42.620;23.338;2023-03-20T04:34:44;93175.25;;;3.76;100.00
17873;BME280;36318;42.620;23.338;2023-03-20T04:37:10;93175.19;;;3.78;100.00
17873;BME280;36318;42.620;23.338;2023-03-20T04:39:37;93170.69;;;3.81;100.00
17873;BME280;36318;42.620;23.338;2023-03-20T04:42:06;93167.31;;;3.81;100.00
17873;BME280;36318;42.620;23.338;2023-03-20T04:44:33;93178.63;;;3.77;100.00
17873;BME280;36318;42.620;23.338;2023-03-20T04:46:59;93180.78;;;3.69;100.00
17873;BME280;36318;42.620;23.338;2023-03-20T04:49:27;93192.72;;;3.70;100.00
17873;BME280;36318;42.620;23.338;2023-03-20T04:51:54;93192.81;;;3.84;100.00
17873;BME280;36318;42.620;23.338;2023-03-20T04:54:20;93194.31;;;3.88;100.00
17873;BME280;36318;42.620;23.338;2023-03-20T04:56:47;93200.75;;;3.95;100.00
17873;BME280;36318;42.620;23.338;2023-03-20T04:59:14;93200.44;;;4.01;100.00
17873;BME280;36318;42.620;23.338;2023-03-20T05:01:40;93205.56;;;4.01;100.00
17873;BME280;36318;42.620;23.338;2023-03-20T05:04:07;93208.22;;;3.99;100.00
17873;BME280;36318;42.620;23.338;2023-03-20T05:06:35;93216.41;;;4.06;100.00
17873;BME280;36318;42.620;23.338;2023-03-20T05:09:01;93210.97;;;4.12;100.00
17873;BME280;36318;42.620;23.338;2023-03-20T05:11:28;93212.03;;;4.23;100.00
17873;BME280;36318;42.620;23.338;2023-03-20T05:13:55;93213.84;;;4.37;100.00
17873;BME280;36318;42.620;23.338;2023-03-20T05:16:21;93215.00;;;4.47;100.00
17873;BME280;36318;42.620;23.338;2023-03-20T05:18:48;93211.66;;;4.61;100.00
17873;BME280;36318;42.620;23.338;2023-03-20T05:21:15;93209.97;;;4.75;100.00
17873;BME280;36318;42.620;23.338;2023-03-20T05:23:43;93212.34;;;4.94;100.00
17873;BME280;36318;42.620;23.338;2023-03-20T05:26:09;93216.69;;;5.08;100.00
17873;BME280;36318;42.620;23.338;2023-03-20T05:28:36;93218.09;;;5.13;100.00
17873;BME280;36318;42.620;23.338;2023-03-20T05:31:02;93226.34;;;5.18;100.00
17873;BME280;36318;42.620;23.338;2023-03-20T05:33:29;93232.34;;;5.19;100.00
17873;BME280;36318;42.620;23.338;2023-03-20T05:35:56;93230.50;;;5.21;100.00
17873;BME280;36318;42.620;23.338;2023-03-20T05:38:22;93235.69;;;5.35;100.00
17873;BME280;36318;42.620;23.338;2023-03-20T05:40:55;93222.94;;;5.62;100.00
17873;BME280;36318;42.620;23.338;2023-03-20T05:43:22;93224.28;;;5.81;100.00
17873;BME280;36318;42.620;23.338;2023-03-20T05:45:49;93228.19;;;6.03;100.00
17873;BME280;36318;42.620;23.338;2023-03-20T05:48:16;93223.91;;;6.30;100.00
17873;BME280;36318;42.620;23.338;2023-03-20T05:50:42;93226.94;;;6.63;100.00
17873;BME280;36318;42.620;23.338;2023-03-20T05:53:09;93230.16;;;6.93;100.00
17873;BME280;36318;42.620;23.338;2023-03-20T05:55:35;93233.84;;;7.29;100.00
17873;BME280;36318;42.620;23.338;2023-03-20T05:58:03;93240.69;;;7.55;100.00
17873;BME280;36318;42.620;23.338;2023-03-20T06:00:30;93246.41;;;7.72;100.00
17873;BME280;36318;42.620;23.338;2023-03-20T06:02:56;93242.97;;;7.84;100.00
17873;BME280;36318;42.620;23.338;2023-03-20T06:05:23;93234.09;;;7.76;100.00
17873;BME280;36318;42.620;23.338;2023-03-20T06:07:50;93234.50;;;7.95;100.00
17873;BME280;36318;42.620;23.338;2023-03-20T06:10:16;93234.91;;;8.14;100.00
17873;BME280;36318;42.620;23.338;2023-03-20T06:12:44;93234.94;;;8.27;100.00
17873;BME280;36318;42.620;23.338;2023-03-20T06:15:12;93233.59;;;8.58;100.00
17873;BME280;36318;42.620;23.338;2023-03-20T06:17:39;93230.50;;;8.89;100.00
17873;BME280;36318;42.620;23.338;2023-03-20T06:20:06;93231.09;;;9.27;100.00
17873;BME280;36318;42.620;23.338;2023-03-20T06:22:33;93232.03;;;9.61;100.00
17873;BME280;36318;42.620;23.338;2023-03-20T06:25:00;93236.81;;;9.78;100.00
17873;BME280;36318;42.620;23.338;2023-03-20T06:27:27;93235.91;;;10.12;95.13
17873;BME280;36318;42.620;23.338;2023-03-20T06:29:53;93248.78;;;10.47;90.72
17873;BME280;36318;42.620;23.338;2023-03-20T06:32:21;93248.41;;;10.63;90.49
17873;BME280;36318;42.620;23.338;2023-03-20T06:34:48;93241.03;;;10.90;87.58
17873;BME280;36318;42.620;23.338;2023-03-20T06:37:15;93235.31;;;11.18;82.02
17873;BME280;36318;42.620;23.338;2023-03-20T06:39:41;93228.69;;;11.67;77.94
17873;BME280;36318;42.620;23.338;2023-03-20T06:42:08;93236.72;;;12.16;71.94
17873;BME280;36318;42.620;23.338;2023-03-20T06:44:35;93235.97;;;12.75;69.38
17873;BME280;36318;42.620;23.338;2023-03-20T06:47:01;93239.13;;;13.47;66.45
17873;BME280;36318;42.620;23.338;2023-03-20T06:49:29;93231.13;;;14.06;63.76
17873;BME280;36318;42.620;23.338;2023-03-20T06:51:55;93231.06;;;14.44;62.43
17873;BME280;36318;42.620;23.338;2023-03-20T06:54:23;93232.78;;;14.90;60.16
17873;BME280;36318;42.620;23.338;2023-03-20T06:56:50;93226.56;;;15.63;58.76
17873;BME280;36318;42.620;23.338;2023-03-20T06:59:16;93228.44;;;16.14;56.67
17873;BME280;36318;42.620;23.338;2023-03-20T07:01:43;93217.19;;;16.47;54.17
17873;BME280;36318;42.620;23.338;2023-03-20T07:04:10;93220.31;;;16.77;54.05
17873;BME280;36318;42.620;23.338;2023-03-20T07:06:37;93209.88;;;17.26;52.71
17873;BME280;36318;42.620;23.338;2023-03-20T07:09:04;93205.47;;;17.35;51.54
17873;BME280;36318;42.620;23.338;2023-03-20T07:11:31;93207.09;;;17.44;51.59
17873;BME280;36318;42.620;23.338;2023-03-20T07:13:59;93213.69;;;17.48;50.45
17873;BME280;36318;42.620;23.338;2023-03-20T07:16:26;93218.34;;;17.54;51.15
17873;BME280;36318;42.620;23.338;2023-03-20T07:18:53;93207.47;;;17.57;50.35
17873;BME280;36318;42.620;23.338;2023-03-20T07:21:20;93212.94;;;17.72;51.12
17873;BME280;36318;42.620;23.338;2023-03-20T07:23:48;93211.25;;;17.55;51.21
17873;BME280;36318;42.620;23.338;2023-03-20T07:26:15;93212.09;;;18.12;50.47
17873;BME280;36318;42.620;23.338;2023-03-20T07:28:42;93209.94;;;18.56;50.22
17873;BME280;36318;42.620;23.338;2023-03-20T07:31:08;93196.66;;;18.41;49.61
17873;BME280;36318;42.620;23.338;2023-03-20T07:33:40;93209.97;;;18.15;49.42
17873;BME280;36318;42.620;23.338;2023-03-20T07:36:06;93210.78;;;17.59;50.21
17873;BME280;36318;42.620;23.338;2023-03-20T07:38:33;93205.53;;;17.67;50.65
17873;BME280;36318;42.620;23.338;2023-03-20T07:41:01;93211.78;;;17.74;49.21
17873;BME280;36318;42.620;23.338;2023-03-20T07:43:28;93201.91;;;18.57;49.19
17873;BME280;36318;42.620;23.338;2023-03-20T07:45:54;93209.81;;;18.49;48.65
17873;BME280;36318;42.620;23.338;2023-03-20T07:48:21;93215.34;;;19.09;48.19
17873;BME280;36318;42.620;23.338;2023-03-20T07:50:47;93204.03;;;19.70;46.05
17873;BME280;36318;42.620;23.338;2023-03-20T07:53:14;93210.50;;;20.27;45.22
17873;BME280;36318;42.620;23.338;2023-03-20T07:55:40;93209.72;;;20.04;44.81
17873;BME280;36318;42.620;23.338;2023-03-20T07:58:10;93203.19;;;20.52;45.13
17873;BME280;36318;42.620;23.338;2023-03-20T08:00:36;93214.16;;;20.78;44.29
17873;BME280;36318;42.620;23.338;2023-03-20T08:03:03;93219.91;;;21.40;43.37
17873;BME280;36318;42.620;23.338;2023-03-20T08:05:30;93216.00;;;21.07;43.14
17873;BME280;36318;42.620;23.338;2023-03-20T08:07:57;93213.84;;;21.97;42.42
17873;BME280;36318;42.620;23.338;2023-03-20T08:10:23;93211.06;;;22.26;41.51
17873;BME280;36318;42.620;23.338;2023-03-20T08:12:50;93197.97;;;22.67;40.82
17873;BME280;36318;42.620;23.338;2023-03-20T08:15:18;93197.22;;;23.07;40.23
17873;BME280;36318;42.620;23.338;2023-03-20T08:17:44;93200.19;;;23.32;40.00
17873;BME280;36318;42.620;23.338;2023-03-20T08:20:11;93205.09;;;23.35;40.32
17873;BME280;36318;42.620;23.338;2023-03-20T08:22:39;93208.41;;;23.98;39.78
17873;BME280;36318;42.620;23.338;2023-03-20T08:25:07;93205.78;;;23.50;38.44
17873;BME280;36318;42.620;23.338;2023-03-20T08:27:34;93215.69;;;23.83;38.82
17873;BME280;36318;42.620;23.338;2023-03-20T08:30:00;93207.03;;;24.28;38.46
17873;BME280;36318;42.620;23.338;2023-03-20T08:32:28;93215.31;;;23.99;37.00
17873;BME280;36318;42.620;23.338;2023-03-20T08:34:55;93215.19;;;24.20;38.02
17873;BME280;36318;42.620;23.338;2023-03-20T08:37:22;93218.25;;;25.22;38.37
17873;BME280;36318;42.620;23.338;2023-03-20T08:39:49;93212.38;;;24.67;36.68
17873;BME280;36318;42.620;23.338;2023-03-20T08:42:15;93208.47;;;24.63;36.63
17873;BME280;36318;42.620;23.338;2023-03-20T08:44:42;93211.63;;;25.44;36.43
17873;BME280;36318;42.620;23.338;2023-03-20T08:47:09;93214.16;;;25.19;36.46
17873;BME280;36318;42.620;23.338;2023-03-20T08:49:37;93208.81;;;23.95;37.48
17873;BME280;36318;42.620;23.338;2023-03-20T08:52:04;93211.53;;;25.00;36.93
17873;BME280;36318;42.620;23.338;2023-03-20T08:54:31;93208.16;;;25.50;36.24
17873;BME280;36318;42.620;23.338;2023-03-20T08:56:58;93210.31;;;26.17;35.55
17873;BME280;36318;42.620;23.338;2023-03-20T08:59:24;93203.84;;;23.72;37.64
17873;BME280;36318;42.620;23.338;2023-03-20T09:01:51;93209.28;;;24.24;37.41
17873;BME280;36318;42.620;23.338;2023-03-20T09:04:17;93203.59;;;24.86;36.38
17873;BME280;36318;42.620;23.338;2023-03-20T09:06:45;93205.66;;;26.44;35.70
17873;BME280;36318;42.620;23.338;2023-03-20T09:09:12;93183.41;;;27.06;34.54
17873;BME280;36318;42.620;23.338;2023-03-20T09:11:40;93190.34;;;27.68;34.24
17873;BME280;36318;42.620;23.338;2023-03-20T09:14:07;93191.34;;;27.12;34.30
17873;BME280;36318;42.620;23.338;2023-03-20T09:16:33;93188.41;;;26.71;34.34
17873;BME280;36318;42.620;23.338;2023-03-20T09:19:00;93189.44;;;26.70;34.83
17873;BME280;36318;42.620;23.338;2023-03-20T09:21:26;93191.56;;;26.37;35.33
17873;BME280;36318;42.620;23.338;2023-03-20T09:23:54;93192.22;;;25.94;35.21
17873;BME280;36318;42.620;23.338;2023-03-20T09:26:21;93185.72;;;25.20;36.03
17873;BME280;36318;42.620;23.338;2023-03-20T09:28:47;93182.94;;;24.10;37.11
17873;BME280;36318;42.620;23.338;2023-03-20T09:31:14;93184.25;;;23.60;37.90
17873;BME280;36318;42.620;23.338;2023-03-20T09:33:41;93188.75;;;22.91;38.77
17873;BME280;36318;42.620;23.338;2023-03-20T09:36:07;93189.28;;;22.03;39.32
17873;BME280;36318;42.620;23.338;2023-03-20T09:38:35;93188.47;;;22.02;39.89
17873;BME280;36318;42.620;23.338;2023-03-20T09:41:03;93186.34;;;21.77;40.03
17873;BME280;36318;42.620;23.338;2023-03-20T09:43:34;93177.19;;;20.49;41.35
17873;BME280;36318;42.620;23.338;2023-03-20T09:46:06;93175.72;;;20.47;43.41
17873;BME280;36318;42.620;23.338;2023-03-20T09:48:38;93175.66;;;20.40;42.35
17873;BME280;36318;42.620;23.338;2023-03-20T09:51:09;93168.56;;;20.41;43.19
17873;BME280;36318;42.620;23.338;2023-03-20T09:53:40;93158.81;;;20.85;43.43
17873;BME280;36318;42.620;23.338;2023-03-20T09:56:11;93149.03;;;20.64;43.10
17873;BME280;36318;42.620;23.338;2023-03-20T09:58:40;93145.81;;;20.69;42.66
17873;BME280;36318;42.620;23.338;2023-03-20T10:01:09;93143.28;;;20.46;42.99
17873;BME280;36318;42.620;23.338;2023-03-20T10:03:41;93131.81;;;20.02;43.68
17873;BME280;36318;42.620;23.338;2023-03-20T10:06:11;93135.09;;;20.26;43.68
17873;BME280;36318;42.620;23.338;2023-03-20T10:08:38;93134.38;;;20.33;43.48
17873;BME280;36318;42.620;23.338;2023-03-20T10:11:07;93120.44;;;20.39;43.20
17873;BME280;36318;42.620;23.338;2023-03-20T10:16:29;93124.34;;;18.45;46.49
17873;BME280;36318;42.620;23.338;2023-03-20T10:18:58;93122.88;;;19.51;45.52
17873;BME280;36318;42.620;23.338;2023-03-20T10:21:29;93119.47;;;20.17;44.16
17873;BME280;36318;42.620;23.338;2023-03-20T10:23:58;93116.38;;;19.99;43.38
17873;BME280;36318;42.620;23.338;2023-03-20T10:26:28;93120.09;;;20.27;43.71
17873;BME280;36318;42.620;23.338;2023-03-20T10:28:57;93118.28;;;20.57;43.47
17873;BME280;36318;42.620;23.338;2023-03-20T10:31:30;93115.47;;;20.06;43.23
17873;BME280;36318;42.620;23.338;2023-03-20T10:34:05;93107.19;;;20.61;43.65
17873;BME280;36318;42.620;23.338;2023-03-20T10:36:43;93108.16;;;20.75;42.82
17873;BME280;36318;42.620;23.338;2023-03-20T10:39:12;93108.44;;;20.80;43.19
17873;BME280;36318;42.620;23.338;2023-03-20T10:41:44;93101.59;;;21.00;43.45
17873;BME280;36318;42.620;23.338;2023-03-20T10:44:14;93099.84;;;20.93;42.01
17873;BME280;36318;42.620;23.338;2023-03-20T10:46:43;93095.59;;;20.77;41.62
17873;BME280;36318;42.620;23.338;2023-03-20T10:49:11;93089.91;;;20.30;42.31
17873;BME280;36318;42.620;23.338;2023-03-20T10:51:44;93091.81;;;19.84;42.79
17873;BME280;36318;42.620;23.338;2023-03-20T10:54:17;93090.72;;;20.30;43.10
17873;BME280;36318;42.620;23.338;2023-03-20T10:56:46;93084.13;;;20.11;43.15
17873;BME280;36318;42.620;23.338;2023-03-20T10:59:16;93083.84;;;20.06;42.31
17873;BME280;36318;42.620;23.338;2023-03-20T11:01:47;93082.53;;;20.40;42.71
17873;BME280;36318;42.620;23.338;2023-03-20T11:04:13;93081.41;;;20.78;41.65
17873;BME280;36318;42.620;23.338;2023-03-20T11:06:40;93074.91;;;21.10;41.92
17873;BME280;36318;42.620;23.338;2023-03-20T11:09:09;93062.66;;;21.44;41.26
17873;BME280;36318;42.620;23.338;2023-03-20T11:11:36;93064.81;;;21.56;41.33
17873;BME280;36318;42.620;23.338;2023-03-20T11:14:08;93069.09;;;21.35;41.23
17873;BME280;36318;42.620;23.338;2023-03-20T11:16:35;93063.31;;;21.68;41.49
17873;BME280;36318;42.620;23.338;2023-03-20T11:19:05;93055.22;;;21.97;41.04
17873;BME280;36318;42.620;23.338;2023-03-20T11:21:32;93049.50;;;21.72;40.75
17873;BME280;36318;42.620;23.338;2023-03-20T11:24:01;93051.81;;;21.82;41.55
17873;BME280;36318;42.620;23.338;2023-03-20T11:26:31;93042.72;;;22.12;40.83
17873;BME280;36318;42.620;23.338;2023-03-20T11:28:59;93045.16;;;21.86;40.82
17873;BME280;36318;42.620;23.338;2023-03-20T11:31:28;93043.69;;;21.56;40.90
17873;BME280;36318;42.620;23.338;2023-03-20T11:34:00;93040.88;;;21.85;40.82
17873;BME280;36318;42.620;23.338;2023-03-20T11:36:36;93032.84;;;22.27;40.70
17873;BME280;36318;42.620;23.338;2023-03-20T11:39:06;93029.09;;;22.49;40.75
17873;BME280;36318;42.620;23.338;2023-03-20T11:41:32;93022.88;;;22.63;40.31
17873;BME280;36318;42.620;23.338;2023-03-20T11:43:59;93022.16;;;22.76;39.67
17873;BME280;36318;42.620;23.338;2023-03-20T11:46:26;93020.72;;;22.80;40.16
17873;BME280;36318;42.620;23.338;2023-03-20T11:49:06;93014.06;;;23.04;40.26
17873;BME280;36318;42.620;23.338;2023-03-20T11:51:35;93005.53;;;23.15;39.09
17873;BME280;36318;42.620;23.338;2023-03-20T11:54:03;93003.88;;;23.01;39.15
17873;BME280;36318;42.620;23.338;2023-03-20T11:56:31;93003.06;;;22.53;38.96
17873;BME280;36318;42.620;23.338;2023-03-20T11:58:59;92996.34;;;22.10;39.49
17873;BME280;36318;42.620;23.338;2023-03-20T12:01:27;93003.50;;;22.22;39.88
17873;BME280;36318;42.620;23.338;2023-03-20T12:03:58;92990.44;;;22.14;40.01
17873;BME280;36318;42.620;23.338;2023-03-20T12:06:27;92988.72;;;21.93;38.76
17873;BME280;36318;42.620;23.338;2023-03-20T12:09:04;92994.09;;;22.47;39.33
17873;BME280;36318;42.620;23.338;2023-03-20T12:11:37;92987.50;;;22.71;38.68
17873;BME280;36318;42.620;23.338;2023-03-20T12:14:07;92983.13;;;22.98;38.25
17873;BME280;36318;42.620;23.338;2023-03-20T12:16:37;92980.59;;;21.95;38.99
17873;BME280;36318;42.620;23.338;2023-03-20T12:19:05;92971.31;;;22.53;38.81
17873;BME280;36318;42.620;23.338;2023-03-20T12:21:37;92978.16;;;22.82;39.63
17873;BME280;36318;42.620;23.338;2023-03-20T12:24:07;92965.00;;;23.21;38.64
17873;BME280;36318;42.620;23.338;2023-03-20T12:26:36;92963.19;;;23.21;36.93
17873;BME280;36318;42.620;23.338;2023-03-20T12:29:09;92969.09;;;23.30;37.22
17873;BME280;36318;42.620;23.338;2023-03-20T12:31:38;92966.75;;;22.75;37.13
17873;BME280;36318;42.620;23.338;2023-03-20T12:34:09;92975.06;;;22.24;38.15
17873;BME280;36318;42.620;23.338;2023-03-20T12:36:38;92965.34;;;22.79;37.16
17873;BME280;36318;42.620;23.338;2023-03-20T12:39:11;92953.81;;;23.06;36.46
17873;BME280;36318;42.620;23.338;2023-03-20T12:41:40;92962.97;;;23.16;36.66
17873;BME280;36318;42.620;23.338;2023-03-20T12:44:14;92963.22;;;23.48;36.15
17873;BME280;36318;42.620;23.338;2023-03-20T12:46:45;92950.13;;;23.20;35.11
17873;BME280;36318;42.620;23.338;2023-03-20T12:49:17;92949.81;;;22.69;36.84
17873;BME280;36318;42.620;23.338;2023-03-20T12:51:49;92944.44;;;23.16;36.86
17873;BME280;36318;42.620;23.338;2023-03-20T12:54:24;92942.03;;;23.48;35.87
17873;BME280;36318;42.620;23.338;2023-03-20T12:56:58;92944.88;;;23.72;35.80
17873;BME280;36318;42.620;23.338;2023-03-20T12:59:28;92937.69;;;23.93;35.24
17873;BME280;36318;42.620;23.338;2023-03-20T13:02:02;92937.31;;;23.83;35.44
17873;BME280;36318;42.620;23.338;2023-03-20T13:04:40;92929.00;;;23.46;35.71
17873;BME280;36318;42.620;23.338;2023-03-20T13:07:15;92924.88;;;23.90;35.78